Time;durP1;ratioP1;P1;durP2;ratioP2;P2;SDS_P1;SDS_P2;PMS_P1;PMS_P2;Temp;Humidity;BMP_temperature;BMP_pressure;BME280_temperature;BME280_humidity;BME280_pressure;Samples;Min_cycle;Max_cycle;Signal;HPM_P1;HPM_P2
2020/12/23 00:02:18;;;;;;;20.17;16.52;;;10.80;97.00;;;;;;5046759;28;20035;-43
2020/12/23 00:04:43;;;;;;;25.95;18.17;;;10.80;97.00;;;;;;5047324;28;20135;-44
2020/12/23 00:07:14;;;;;;;23.00;18.45;;;10.80;97.00;;;;;;5046805;28;20033;-44
2020/12/23 00:09:43;;;;;;;23.13;17.42;;;10.80;97.10;;;;;;5046530;28;20025;-42
2020/12/23 00:12:09;;;;;;;22.63;16.73;;;10.80;97.10;;;;;;5047166;28;20029;-43
2020/12/23 00:14:34;;;;;;;25.27;18.40;;;10.80;97.20;;;;;;5047098;28;20045;-43
2020/12/23 00:17:00;;;;;;;26.23;17.58;;;10.80;97.10;;;;;;5046576;28;20484;-42
2020/12/23 00:19:26;;;;;;;25.60;18.27;;;10.80;97.10;;;;;;5047083;28;20028;-43
2020/12/23 00:21:51;;;;;;;27.17;19.13;;;10.90;97.20;;;;;;5046689;28;20039;-43
2020/12/23 00:24:17;;;;;;;26.35;18.42;;;10.80;97.10;;;;;;5046248;28;20029;-43
2020/12/23 00:26:45;;;;;;;27.20;19.20;;;10.90;97.20;;;;;;5046456;28;20408;-43
2020/12/23 00:29:11;;;;;;;24.70;17.27;;;10.80;97.10;;;;;;5046657;28;20566;-43
2020/12/23 00:31:36;;;;;;;24.35;17.42;;;10.80;97.20;;;;;;5046679;28;20060;-43
2020/12/23 00:34:02;;;;;;;24.35;16.80;;;10.90;97.20;;;;;;5046527;28;20132;-43
2020/12/23 00:36:28;;;;;;;26.15;17.27;;;10.90;97.20;;;;;;5046291;28;20381;-47
2020/12/23 00:38:53;;;;;;;27.98;18.27;;;10.90;97.20;;;;;;5046633;28;20134;-43
2020/12/23 00:41:19;;;;;;;26.95;19.08;;;11.00;97.20;;;;;;5046125;28;20060;-43
2020/12/23 00:43:44;;;;;;;27.15;18.35;;;10.90;97.20;;;;;;5046010;28;20050;-43
2020/12/23 00:46:11;;;;;;;27.73;18.25;;;10.90;97.20;;;;;;5046809;28;20723;-43
2020/12/23 00:48:38;;;;;;;26.45;18.10;;;10.90;97.20;;;;;;5046740;28;20476;-43
2020/12/23 00:51:22;;;;;;;26.85;17.58;;;10.90;97.10;;;;;;5046038;28;20389;-43
2020/12/23 00:53:47;;;;;;;24.88;17.30;;;10.90;97.20;;;;;;5046586;28;20067;-43
2020/12/23 00:56:13;;;;;;;31.25;18.63;;;10.90;97.20;;;;;;5046309;28;20801;-43
2020/12/23 00:58:39;;;;;;;29.55;19.65;;;10.90;97.20;;;;;;5046052;28;20835;-44
2020/12/23 01:01:04;;;;;;;30.95;20.52;;;10.90;97.20;;;;;;5046718;28;20114;-44
2020/12/23 01:03:30;;;;;;;29.35;20.35;;;10.90;97.10;;;;;;5046432;28;20032;-44
2020/12/23 01:05:56;;;;;;;31.80;20.85;;;10.90;97.10;;;;;;5045811;28;20060;-44
2020/12/23 01:08:21;;;;;;;33.45;21.23;;;10.90;97.20;;;;;;5046448;28;20520;-42
2020/12/23 01:10:47;;;;;;;33.05;20.48;;;10.90;97.20;;;;;;5046325;28;20035;-43
2020/12/23 01:13:14;;;;;;;30.58;19.25;;;10.90;97.20;;;;;;5045869;28;20091;-43
2020/12/23 01:15:40;;;;;;;34.10;20.35;;;10.90;97.20;;;;;;5046045;28;20144;-43
2020/12/23 01:18:06;;;;;;;35.35;22.17;;;10.90;97.20;;;;;;5046350;28;20112;-43
2020/12/23 01:20:31;;;;;;;35.83;21.17;;;10.90;97.20;;;;;;5046053;28;20113;-43
2020/12/23 01:22:57;;;;;;;33.40;21.55;;;10.90;97.20;;;;;;5046378;28;20033;-43
2020/12/23 01:25:23;;;;;;;39.03;23.00;;;10.90;97.20;;;;;;5045955;28;20512;-43
2020/12/23 01:27:48;;;;;;;42.05;22.02;;;10.90;97.20;;;;;;5045531;28;20025;-44
2020/12/23 01:30:16;;;;;;;32.47;20.88;;;10.90;97.30;;;;;;5046273;28;20033;-43
2020/12/23 01:32:44;;;;;;;38.00;21.58;;;10.90;97.30;;;;;;5045598;28;20041;-42
2020/12/23 01:35:10;;;;;;;37.70;21.92;;;10.90;97.60;;;;;;5045957;28;20094;-43
2020/12/23 01:37:36;;;;;;;37.83;21.35;;;10.90;97.30;;;;;;5046558;28;20029;-43
2020/12/23 01:40:05;;;;;;;32.08;19.88;;;10.90;97.30;;;;;;5045257;28;20036;-43
2020/12/23 01:42:35;;;;;;;34.60;21.42;;;10.90;97.40;;;;;;5046264;28;20036;-43
2020/12/23 01:45:02;;;;;;;33.42;20.23;;;10.80;97.30;;;;;;5046105;28;20567;-43
2020/12/23 01:47:30;;;;;;;35.22;20.02;;;10.90;97.40;;;;;;5045850;28;20029;-42
2020/12/23 01:49:56;;;;;;;35.65;21.38;;;10.90;97.40;;;;;;5045600;28;20021;-43
2020/12/23 01:52:23;;;;;;;36.63;21.65;;;10.90;97.40;;;;;;5046043;28;20040;-43
2020/12/23 01:54:49;;;;;;;36.83;21.95;;;10.90;97.40;;;;;;5048224;28;20036;-43
2020/12/23 01:57:14;;;;;;;42.95;22.85;;;10.90;97.40;;;;;;5049566;28;20032;-43
2020/12/23 01:59:45;;;;;;;39.92;23.10;;;10.80;97.30;;;;;;5049336;28;20029;-43
2020/12/23 02:02:19;;;;;;;59.90;28.15;;;10.90;97.40;;;;;;5048556;28;20025;-43
2020/12/23 02:04:44;;;;;;;55.83;27.98;;;10.90;97.40;;;;;;5049870;28;20029;-43
2020/12/23 02:07:10;;;;;;;50.30;27.33;;;10.80;97.30;;;;;;5049147;28;20025;-43
2020/12/23 02:09:38;;;;;;;53.22;27.55;;;10.80;97.40;;;;;;5049081;28;20039;-43
2020/12/23 02:12:04;;;;;;;52.05;27.05;;;10.80;97.50;;;;;;5049476;28;20029;-43
2020/12/23 02:14:30;;;;;;;53.92;28.02;;;10.80;97.50;;;;;;5048648;28;20831;-43
2020/12/23 02:16:55;;;;;;;54.75;28.42;;;10.80;97.50;;;;;;5048306;28;20125;-43
2020/12/23 02:19:21;;;;;;;56.42;29.27;;;10.80;97.60;;;;;;5049207;28;20083;-43
2020/12/23 02:21:47;;;;;;;60.80;30.75;;;10.80;97.60;;;;;;5049062;28;20029;-43
2020/12/23 02:24:12;;;;;;;41.90;25.60;;;10.80;97.60;;;;;;5048592;28;20060;-44
2020/12/23 02:26:38;;;;;;;44.15;23.52;;;10.80;97.70;;;;;;5049169;28;20102;-44
2020/12/23 02:29:04;;;;;;;44.40;23.65;;;10.80;97.70;;;;;;5048561;28;20578;-44
2020/12/23 02:31:29;;;;;;;46.47;25.38;;;10.80;97.80;;;;;;5048537;28;20037;-44
2020/12/23 02:33:55;;;;;;;53.30;26.15;;;10.80;98.00;;;;;;5048911;28;20485;-44
2020/12/23 02:36:20;;;;;;;48.33;26.10;;;10.90;97.80;;;;;;5048195;28;20033;-42
2020/12/23 02:38:46;;;;;;;50.10;25.85;;;10.80;97.70;;;;;;5048792;28;20040;-42
2020/12/23 02:41:11;;;;;;;58.35;28.48;;;10.90;97.70;;;;;;5048951;28;20389;-42
2020/12/23 02:43:37;;;;;;;60.30;28.65;;;10.90;97.70;;;;;;5048285;28;20036;-42
2020/12/23 02:46:02;;;;;;;57.97;28.17;;;10.90;97.70;;;;;;5048380;28;20033;-42
2020/12/23 02:48:28;;;;;;;55.50;27.15;;;10.90;97.70;;;;;;5048533;28;20461;-43
2020/12/23 02:50:53;;;;;;;65.90;29.08;;;10.90;97.70;;;;;;5048047;28;20028;-44
2020/12/23 02:53:19;;;;;;;54.33;26.92;;;10.90;97.80;;;;;;5048192;28;20542;-43
2020/12/23 02:55:44;;;;;;;49.25;24.05;;;10.90;97.80;;;;;;5048621;28;20058;-44
2020/12/23 02:58:10;;;;;;;47.10;23.33;;;11.00;97.90;;;;;;5047899;28;20494;-43
2020/12/23 03:00:35;;;;;;;48.03;22.98;;;11.00;97.90;;;;;;5048112;28;20021;-43
2020/12/23 03:03:01;;;;;;;49.35;24.45;;;11.00;97.90;;;;;;5048850;28;20082;-43
2020/12/23 03:05:26;;;;;;;50.83;25.75;;;11.00;97.80;;;;;;5047572;28;20025;-43
2020/12/23 03:07:51;;;;;;;52.72;26.30;;;11.00;97.80;;;;;;5048225;28;20032;-43
2020/12/23 03:10:17;;;;;;;59.67;27.60;;;11.00;97.70;;;;;;5048161;28;20413;-43
2020/12/23 03:12:42;;;;;;;56.00;27.02;;;11.00;97.70;;;;;;5047589;28;20116;-43
2020/12/23 03:15:08;;;;;;;60.63;28.92;;;11.00;97.70;;;;;;5047601;28;20044;-43
2020/12/23 03:17:33;;;;;;;62.92;27.20;;;11.00;97.70;;;;;;5048039;28;20490;-43
2020/12/23 03:19:59;;;;;;;57.90;27.10;;;11.00;97.70;;;;;;5048056;28;20033;-44
2020/12/23 03:22:25;;;;;;;56.95;27.30;;;11.00;97.80;;;;;;5047866;28;20750;-43
2020/12/23 03:24:51;;;;;;;64.43;28.63;;;11.00;97.70;;;;;;5047677;28;20025;-42
2020/12/23 03:27:16;;;;;;;65.82;29.35;;;11.00;97.80;;;;;;5047478;28;20083;-43
2020/12/23 03:29:42;;;;;;;65.57;28.17;;;11.00;97.80;;;;;;5047769;28;20029;-44
2020/12/23 03:32:07;;;;;;;55.28;27.50;;;11.00;97.80;;;;;;5047379;28;20507;-43
2020/12/23 03:34:33;;;;;;;56.00;27.92;;;11.00;97.80;;;;;;5047787;28;20167;-43
2020/12/23 03:36:58;;;;;;;53.53;25.02;;;11.00;97.80;;;;;;5047406;28;20068;-43
2020/12/23 03:39:24;;;;;;;63.25;25.05;;;11.00;97.80;;;;;;5047530;28;20024;-43
2020/12/23 03:41:49;;;;;;;55.60;27.70;;;11.00;97.80;;;;;;5047515;28;20400;-43
2020/12/23 03:44:15;;;;;;;54.85;25.58;;;11.10;97.80;;;;;;5047332;28;20040;-44
2020/12/23 03:46:40;;;;;;;53.55;26.05;;;11.10;97.80;;;;;;5047092;28;20063;-43
2020/12/23 03:49:06;;;;;;;54.75;24.98;;;11.00;97.80;;;;;;5047576;28;20634;-44
2020/12/23 03:51:31;;;;;;;58.67;25.33;;;11.10;97.90;;;;;;5047565;28;20025;-43
2020/12/23 03:53:57;;;;;;;66.68;28.60;;;11.10;97.80;;;;;;5046922;28;20543;-43
2020/12/23 03:56:22;;;;;;;83.55;29.48;;;11.10;97.80;;;;;;5047601;28;20021;-43
2020/12/23 03:58:47;;;;;;;73.47;30.65;;;11.10;97.80;;;;;;5047021;28;20533;-43
2020/12/23 04:01:13;;;;;;;80.20;32.20;;;11.10;97.80;;;;;;5046756;28;20029;-43
2020/12/23 04:03:38;;;;;;;63.45;29.27;;;11.00;97.80;;;;;;5046964;28;20036;-43
2020/12/23 04:06:04;;;;;;;65.70;26.02;;;11.00;97.80;;;;;;5047404;28;20036;-44
2020/12/23 04:08:29;;;;;;;62.00;26.10;;;11.00;97.90;;;;;;5046994;28;20033;-44
2020/12/23 04:10:55;;;;;;;59.45;25.92;;;11.00;97.90;;;;;;5046932;28;20035;-44
2020/12/23 04:13:20;;;;;;;59.35;26.13;;;11.10;97.90;;;;;;5046589;28;20549;-44
2020/12/23 04:15:46;;;;;;;69.93;27.88;;;11.10;97.90;;;;;;5046003;28;20096;-43
2020/12/23 04:18:11;;;;;;;74.28;30.90;;;11.10;97.90;;;;;;5046808;28;20456;-42
2020/12/23 04:20:37;;;;;;;82.18;31.60;;;11.10;97.90;;;;;;5047290;28;20804;-43
2020/12/23 04:23:03;;;;;;;72.70;29.38;;;11.10;97.90;;;;;;5046584;28;20028;-43
2020/12/23 04:25:28;;;;;;;74.03;31.73;;;11.10;97.90;;;;;;5046458;28;20063;-43
2020/12/23 04:27:54;;;;;;;69.68;31.00;;;11.10;97.90;;;;;;5046568;28;20025;-43
2020/12/23 04:30:19;;;;;;;69.15;29.10;;;11.10;97.90;;;;;;5046289;28;20488;-43
2020/12/23 04:32:45;;;;;;;68.88;30.92;;;11.10;98.00;;;;;;5046689;28;20029;-43
2020/12/23 04:35:10;;;;;;;64.22;29.77;;;11.10;98.00;;;;;;5046700;28;20029;-43
2020/12/23 04:37:36;;;;;;;60.78;27.23;;;11.10;98.00;;;;;;5046653;28;20511;-43
2020/12/23 04:40:03;;;;;;;64.00;29.23;;;11.10;98.00;;;;;;5046613;28;20084;-43
2020/12/23 04:42:29;;;;;;;62.30;29.63;;;11.20;98.10;;;;;;5046733;28;20054;-43
2020/12/23 04:44:55;;;;;;;75.38;30.55;;;11.20;98.10;;;;;;5046068;28;20481;-43
2020/12/23 04:47:26;;;;;;;71.82;33.15;;;11.20;98.10;;;;;;5046605;28;20032;-43
2020/12/23 04:49:54;;;;;;;71.80;31.27;;;11.20;98.10;;;;;;5046069;28;20032;-42
2020/12/23 04:52:23;;;;;;;73.75;30.23;;;11.20;98.10;;;;;;5046758;28;20456;-43
2020/12/23 04:54:49;;;;;;;63.17;29.40;;;11.20;98.20;;;;;;5046364;28;20036;-43
2020/12/23 04:57:17;;;;;;;67.25;29.23;;;11.20;98.20;;;;;;5046159;28;20481;-44
2020/12/23 04:59:43;;;;;;;55.45;27.48;;;11.20;98.20;;;;;;5046396;28;20048;-43
2020/12/23 05:02:09;;;;;;;63.22;29.08;;;11.20;98.20;;;;;;5046599;28;20040;-43
2020/12/23 05:04:34;;;;;;;60.08;28.42;;;11.20;98.30;;;;;;5046701;28;20028;-43
2020/12/23 05:07:05;;;;;;;59.33;29.58;;;11.20;98.30;;;;;;5046573;28;20041;-42
2020/12/23 05:09:30;;;;;;;63.78;28.75;;;11.30;98.30;;;;;;5046454;28;20476;-44
2020/12/23 05:11:57;;;;;;;55.15;27.08;;;11.20;98.30;;;;;;5045938;28;20037;-44
2020/12/23 05:14:23;;;;;;;58.63;27.80;;;11.30;98.40;;;;;;5046556;28;20044;-44
2020/12/23 05:16:50;;;;;;;53.13;25.90;;;11.20;98.30;;;;;;5046389;28;20031;-44
2020/12/23 05:19:17;;;;;;;58.75;27.33;;;11.30;98.40;;;;;;5046289;28;20025;-43
2020/12/23 05:21:43;;;;;;;53.15;26.52;;;11.30;98.40;;;;;;5046083;28;20033;-44
2020/12/23 05:24:09;;;;;;;49.78;25.25;;;11.30;98.40;;;;;;5046184;28;20029;-43
2020/12/23 05:26:39;;;;;;;49.80;24.58;;;11.30;98.40;;;;;;5046233;28;20120;-43
2020/12/23 05:29:05;;;;;;;50.88;23.45;;;11.30;98.40;;;;;;5050126;28;20024;-43
2020/12/23 05:31:34;;;;;;;46.70;22.75;;;11.30;98.50;;;;;;5050336;28;20029;-44
2020/12/23 05:33:59;;;;;;;49.17;23.85;;;11.30;98.50;;;;;;5049905;28;20075;-45
2020/12/23 05:36:25;;;;;;;38.58;20.48;;;11.30;98.60;;;;;;5050032;28;20028;-44
2020/12/23 05:38:51;;;;;;;39.65;21.83;;;11.20;98.60;;;;;;5049908;28;20024;-44
2020/12/23 05:41:16;;;;;;;42.35;21.90;;;11.30;98.70;;;;;;5050340;28;20479;-44
2020/12/23 05:43:42;;;;;;;42.60;22.85;;;11.30;98.70;;;;;;5050117;28;20028;-44
2020/12/23 05:46:10;;;;;;;39.03;22.73;;;11.30;98.70;;;;;;5049483;28;20040;-43
2020/12/23 05:48:39;;;;;;;44.05;22.27;;;11.30;98.80;;;;;;5050285;28;20362;-43
2020/12/23 05:51:07;;;;;;;46.38;23.15;;;11.30;98.80;;;;;;5050156;28;20029;-44
2020/12/23 05:53:34;;;;;;;46.20;22.42;;;11.30;98.80;;;;;;5049351;28;20037;-43
2020/12/23 05:56:02;;;;;;;39.65;21.40;;;11.30;98.90;;;;;;5049702;28;20025;-43
2020/12/23 05:58:36;;;;;;;38.28;20.10;;;11.40;98.90;;;;;;5049719;28;20037;-43
2020/12/23 06:01:07;;;;;;;29.13;17.73;;;11.30;99.00;;;;;;5049515;28;20431;-43
2020/12/23 06:03:55;;;;;;;26.27;16.67;;;11.40;99.00;;;;;;5049843;28;20025;-43
2020/12/23 06:06:32;;;;;;;22.35;15.52;;;11.40;99.10;;;;;;5049578;28;20036;-43
2020/12/23 06:09:05;;;;;;;25.42;15.13;;;11.30;99.10;;;;;;5049382;28;20032;-43
2020/12/23 06:11:38;;;;;;;23.70;14.73;;;11.30;99.10;;;;;;5049715;28;20106;-43
2020/12/23 06:14:13;;;;;;;23.58;14.57;;;11.40;99.20;;;;;;5049070;28;20033;-44
2020/12/23 06:16:58;;;;;;;23.70;14.95;;;11.40;99.30;;;;;;5049439;28;20057;-44
2020/12/23 06:19:36;;;;;;;22.40;15.27;;;11.30;99.30;;;;;;5049300;28;20040;-43
2020/12/23 06:22:03;;;;;;;26.85;15.48;;;11.40;99.30;;;;;;5048742;28;20033;-43
2020/12/23 06:24:28;;;;;;;26.65;15.32;;;11.40;99.30;;;;;;5048862;28;20017;-42
2020/12/23 06:26:56;;;;;;;22.63;14.35;;;11.40;99.40;;;;;;5049283;28;20041;-43
2020/12/23 06:29:25;;;;;;;24.02;15.13;;;11.40;99.40;;;;;;5048682;28;20380;-43
2020/12/23 06:31:54;;;;;;;23.40;13.77;;;11.40;99.40;;;;;;5049074;28;20048;-42
2020/12/23 06:34:22;;;;;;;19.88;13.02;;;11.50;99.40;;;;;;5049201;28;20076;-43
2020/12/23 06:36:48;;;;;;;20.77;14.30;;;11.50;99.40;;;;;;5048574;28;20031;-43
2020/12/23 06:39:38;;;;;;;16.20;12.27;;;11.50;99.40;;;;;;5048015;28;20037;-43
2020/12/23 06:42:03;;;;;;;21.13;12.70;;;11.50;99.40;;;;;;5049280;28;20052;-43
2020/12/23 06:44:41;;;;;;;18.55;11.65;;;11.50;99.40;;;;;;5046925;28;20056;-43
2020/12/23 06:47:16;;;;;;;17.02;11.90;;;11.50;99.40;;;;;;5047974;28;20069;-44
2020/12/23 06:49:46;;;;;;;14.88;11.23;;;11.60;99.40;;;;;;5046076;28;20044;-43
2020/12/23 06:52:28;;;;;;;15.18;11.88;;;11.60;99.40;;;;;;5045129;28;20480;-43
2020/12/23 06:55:03;;;;;;;15.00;11.10;;;11.60;99.40;;;;;;5047925;28;20146;-43
2020/12/23 06:57:44;;;;;;;16.95;12.57;;;11.70;99.40;;;;;;5047437;28;20410;-43
2020/12/23 07:00:25;;;;;;;12.95;10.40;;;11.70;99.40;;;;;;5048891;28;20112;-43
2020/12/23 07:02:55;;;;;;;10.80;9.02;;;11.70;99.40;;;;;;5048794;28;20037;-43
2020/12/23 07:05:21;;;;;;;13.23;10.25;;;11.80;99.40;;;;;;5050548;28;20029;-44
2020/12/23 07:07:47;;;;;;;11.35;9.27;;;11.80;99.40;;;;;;5048354;28;20116;-43
2020/12/23 07:10:14;;;;;;;13.52;10.00;;;11.80;99.40;;;;;;5048845;28;20029;-44
2020/12/23 07:12:44;;;;;;;16.30;10.40;;;11.90;99.40;;;;;;5049823;28;20052;-44
2020/12/23 07:15:12;;;;;;;11.20;9.45;;;11.90;99.30;;;;;;5063433;28;20049;-44
2020/12/23 07:17:40;;;;;;;9.75;8.50;;;11.90;99.30;;;;;;5056640;28;20457;-44
2020/12/23 07:20:07;;;;;;;12.95;10.93;;;11.90;99.30;;;;;;5062121;28;20381;-43
2020/12/23 07:22:34;;;;;;;12.73;10.57;;;11.90;99.30;;;;;;5068085;28;20858;-42
2020/12/23 07:25:00;;;;;;;12.95;11.30;;;11.90;99.30;;;;;;5067665;28;20782;-43
2020/12/23 07:27:27;;;;;;;11.48;9.93;;;11.90;99.30;;;;;;5067881;28;20093;-43
2020/12/23 07:29:56;;;;;;;10.18;9.00;;;11.90;99.30;;;;;;5068305;28;20074;-44
2020/12/23 07:32:25;;;;;;;9.98;8.80;;;12.00;99.30;;;;;;5067461;28;20028;-43
2020/12/23 07:34:51;;;;;;;9.60;8.60;;;12.00;99.30;;;;;;5067824;28;20067;-42
2020/12/23 07:37:17;;;;;;;10.50;9.40;;;12.00;99.20;;;;;;5059490;28;20039;-42
2020/12/23 07:39:50;;;;;;;9.88;8.88;;;12.00;99.20;;;;;;5052448;28;20472;-43
2020/12/23 07:42:20;;;;;;;8.90;7.68;;;12.10;99.30;;;;;;5047916;28;20025;-43
2020/12/23 07:44:52;;;;;;;8.65;7.75;;;12.10;99.20;;;;;;5047883;28;20021;-43
2020/12/23 07:47:24;;;;;;;8.10;7.30;;;12.10;99.20;;;;;;5047265;28;20036;-43
2020/12/23 07:50:05;;;;;;;7.53;6.70;;;12.10;99.20;;;;;;5047599;28;20671;-43
2020/12/23 07:52:30;;;;;;;7.88;6.82;;;12.20;99.20;;;;;;5046245;28;20041;-43
2020/12/23 07:55:20;;;;;;;6.93;6.28;;;12.20;99.20;;;;;;5047553;28;20028;-43
2020/12/23 07:57:52;;;;;;;8.10;7.25;;;12.20;99.20;;;;;;5047678;28;20029;-43
2020/12/23 08:00:18;;;;;;;10.00;7.53;;;12.20;99.20;;;;;;5047011;28;20112;-44
2020/12/23 08:02:44;;;;;;;8.45;7.63;;;12.20;99.20;;;;;;5047493;28;20423;-44
2020/12/23 08:05:13;;;;;;;9.35;7.78;;;12.30;99.20;;;;;;5047376;28;20476;-44
2020/12/23 08:07:41;;;;;;;8.05;7.35;;;12.30;99.20;;;;;;5049088;28;20020;-43
2020/12/23 08:10:08;;;;;;;8.55;7.43;;;12.30;99.30;;;;;;5055855;28;20114;-43
2020/12/23 08:12:34;;;;;;;8.63;7.72;;;12.20;99.30;;;;;;5058459;28;20373;-43
2020/12/23 08:15:00;;;;;;;8.60;7.80;;;12.20;99.30;;;;;;5066557;28;20500;-43
2020/12/23 08:17:25;;;;;;;9.38;8.38;;;12.30;99.30;;;;;;5062335;28;20542;-43
2020/12/23 08:20:08;;;;;;;8.65;7.75;;;12.30;99.40;;;;;;5057097;28;20048;-43
2020/12/23 08:22:35;;;;;;;9.45;7.80;;;12.30;99.40;;;;;;5056255;28;20028;-43
2020/12/23 08:25:15;;;;;;;8.25;7.32;;;12.30;99.40;;;;;;5053038;28;20048;-43
2020/12/23 08:27:43;;;;;;;8.40;7.60;;;12.30;99.40;;;;;;5054899;28;20383;-43
2020/12/23 08:30:12;;;;;;;9.13;8.20;;;12.30;99.40;;;;;;5058284;28;20092;-43
2020/12/23 08:32:44;;;;;;;9.57;8.50;;;12.30;99.40;;;;;;5067056;28;20089;-42
2020/12/23 08:35:10;;;;;;;9.77;8.77;;;12.30;99.50;;;;;;5066448;28;20020;-43
2020/12/23 08:37:36;;;;;;;11.13;8.60;;;12.30;99.50;;;;;;5057908;28;20041;-43
2020/12/23 08:40:04;;;;;;;9.10;8.20;;;12.30;99.50;;;;;;5052575;28;20614;-44
2020/12/23 08:42:30;;;;;;;8.43;7.63;;;12.30;99.50;;;;;;5055530;28;20037;-43
2020/12/23 08:44:57;;;;;;;9.30;8.40;;;12.30;99.60;;;;;;5055171;28;20601;-44
2020/12/23 08:47:30;;;;;;;8.20;7.40;;;12.40;99.60;;;;;;5048538;28;20019;-44
2020/12/23 08:49:56;;;;;;;7.82;6.93;;;12.40;99.60;;;;;;5055964;28;20146;-44
2020/12/23 08:52:24;;;;;;;7.82;7.05;;;12.40;99.60;;;;;;5057349;28;20052;-43
2020/12/23 08:54:51;;;;;;;7.00;6.32;;;12.40;99.60;;;;;;5065655;28;20721;-43
2020/12/23 08:57:25;;;;;;;8.95;7.25;;;12.40;99.60;;;;;;5053758;28;20063;-44
2020/12/23 08:59:51;;;;;;;6.78;6.10;;;12.40;99.60;;;;;;5052636;28;20022;-46
2020/12/23 09:02:17;;;;;;;7.72;6.70;;;12.40;99.60;;;;;;5058259;28;20039;-43
2020/12/23 09:04:43;;;;;;;7.80;7.00;;;12.40;99.60;;;;;;5060074;28;20613;-43
2020/12/23 09:07:09;;;;;;;6.68;6.07;;;12.40;99.60;;;;;;5057256;28;20107;-43
2020/12/23 09:09:35;;;;;;;6.82;6.13;;;12.40;99.60;;;;;;5060957;28;20525;-42
2020/12/23 09:12:04;;;;;;;5.93;5.43;;;12.40;99.60;;;;;;5059440;28;20059;-43
2020/12/23 09:14:39;;;;;;;6.25;5.65;;;12.50;99.60;;;;;;5058999;28;20446;-43
2020/12/23 09:17:06;;;;;;;6.43;5.82;;;12.50;99.60;;;;;;5065050;28;20033;-43
2020/12/23 09:19:43;;;;;;;7.28;5.55;;;12.50;99.60;;;;;;5064465;28;20033;-43
2020/12/23 09:22:11;;;;;;;6.53;5.88;;;12.50;99.60;;;;;;5070572;28;20427;-43
2020/12/23 09:24:36;;;;;;;6.57;5.60;;;12.50;99.60;;;;;;5070644;28;20101;-43
2020/12/23 09:27:25;;;;;;;6.45;5.80;;;12.50;99.50;;;;;;5070552;28;20418;-43
2020/12/23 09:29:53;;;;;;;5.95;5.35;;;12.50;99.50;;;;;;5065772;28;20598;-43
2020/12/23 09:32:19;;;;;;;5.22;4.72;;;12.50;99.50;;;;;;5056202;28;20039;-43
2020/12/23 09:34:44;;;;;;;5.70;5.10;;;12.60;99.50;;;;;;5059212;28;20029;-43
2020/12/23 09:37:10;;;;;;;5.40;4.80;;;12.50;99.50;;;;;;5056260;28;20029;-42
2020/12/23 09:39:37;;;;;;;5.55;4.50;;;12.50;99.50;;;;;;5063802;28;20025;-44
2020/12/23 09:42:07;;;;;;;5.78;4.30;;;12.60;99.50;;;;;;5058810;28;20028;-42
2020/12/23 09:44:34;;;;;;;3.80;3.45;;;12.60;99.50;;;;;;5058848;28;20468;-46
2020/12/23 09:47:00;;;;;;;3.75;3.30;;;12.60;99.50;;;;;;5060126;28;20046;-43
2020/12/23 09:49:27;;;;;;;3.55;3.25;;;12.60;99.50;;;;;;5059119;28;20081;-43
2020/12/23 09:51:53;;;;;;;4.30;3.60;;;12.60;99.50;;;;;;5058703;28;20048;-44
2020/12/23 09:54:19;;;;;;;4.18;3.30;;;12.60;99.60;;;;;;5066045;28;20067;-43
2020/12/23 09:56:52;;;;;;;4.25;3.50;;;12.60;99.50;;;;;;5069851;28;20064;-44
2020/12/23 09:59:18;;;;;;;3.08;2.83;;;12.60;99.50;;;;;;5069001;28;20110;-43
2020/12/23 10:01:45;;;;;;;3.63;2.90;;;12.70;99.50;;;;;;5068897;28;20029;-43
2020/12/23 10:04:11;;;;;;;3.50;3.20;;;12.70;99.40;;;;;;5069209;28;20024;-43
2020/12/23 10:06:36;;;;;;;3.25;2.95;;;12.70;99.40;;;;;;5069621;28;20036;-44
2020/12/23 10:09:03;;;;;;;3.50;3.00;;;12.70;99.40;;;;;;5069273;28;20375;-42
2020/12/23 10:11:29;;;;;;;3.58;3.13;;;12.70;99.40;;;;;;5069269;28;20120;-43
2020/12/23 10:13:55;;;;;;;4.07;3.03;;;12.70;99.60;;;;;;5067933;28;20673;-43
2020/12/23 10:16:21;;;;;;;2.95;2.65;;;12.70;99.30;;;;;;5068832;28;20136;-43
2020/12/23 10:18:46;;;;;;;5.78;3.45;;;12.80;99.40;;;;;;5069283;28;20111;-42
2020/12/23 10:21:12;;;;;;;4.43;3.42;;;12.80;99.40;;;;;;5069179;28;20012;-44
2020/12/23 10:23:38;;;;;;;5.82;3.25;;;12.80;99.40;;;;;;5069257;28;20082;-42
2020/12/23 10:26:04;;;;;;;2.72;2.53;;;12.80;99.30;;;;;;5069467;28;20040;-43
2020/12/23 10:28:29;;;;;;;3.45;3.13;;;12.80;99.30;;;;;;5068482;28;20024;-43
2020/12/23 10:30:55;;;;;;;3.97;3.58;;;12.90;99.30;;;;;;5069090;28;20021;-42
2020/12/23 10:33:21;;;;;;;3.75;3.45;;;12.80;99.20;;;;;;5069070;28;20484;-44
2020/12/23 10:35:46;;;;;;;4.00;3.53;;;12.90;99.30;;;;;;5068187;28;20035;-44
2020/12/23 10:38:12;;;;;;;3.80;3.50;;;12.90;99.30;;;;;;5068522;28;20032;-44
2020/12/23 10:40:37;;;;;;;5.43;4.50;;;12.90;99.30;;;;;;5069182;28;20078;-44
2020/12/23 10:43:03;;;;;;;4.57;4.18;;;12.90;99.20;;;;;;5064990;28;20061;-43
2020/12/23 10:45:29;;;;;;;5.60;4.78;;;12.90;99.20;;;;;;5058562;28;20020;-43
2020/12/23 10:47:54;;;;;;;4.65;4.25;;;12.90;99.20;;;;;;5059086;28;20021;-44
2020/12/23 10:50:20;;;;;;;6.05;4.00;;;12.90;99.20;;;;;;5068204;28;20054;-44
2020/12/23 10:52:45;;;;;;;4.60;4.20;;;13.00;99.20;;;;;;5068226;28;20072;-43
2020/12/23 10:55:11;;;;;;;4.57;3.92;;;12.90;99.20;;;;;;5061414;28;20020;-43
2020/12/23 10:57:38;;;;;;;4.32;3.92;;;13.00;99.20;;;;;;5003410;28;20599;-42
2020/12/23 11:00:07;;;;;;;4.22;3.83;;;13.00;99.10;;;;;;5049008;28;20028;-43
2020/12/23 11:02:33;;;;;;;4.90;3.92;;;13.00;99.10;;;;;;5048565;28;20040;-43
2020/12/23 11:04:58;;;;;;;4.38;3.67;;;12.90;99.10;;;;;;5048136;28;20171;-43
2020/12/23 11:07:24;;;;;;;3.40;3.10;;;12.90;99.10;;;;;;5047852;28;20032;-44
2020/12/23 11:09:50;;;;;;;3.08;2.83;;;12.90;99.10;;;;;;5046758;28;20025;-44
2020/12/23 11:12:16;;;;;;;4.10;3.75;;;12.90;99.10;;;;;;5047157;28;20399;-44
2020/12/23 11:14:42;;;;;;;4.30;3.90;;;12.90;99.10;;;;;;5046445;28;20092;-44
2020/12/23 11:17:08;;;;;;;4.85;4.38;;;12.90;99.10;;;;;;5046249;28;20536;-44
2020/12/23 11:19:33;;;;;;;4.18;3.47;;;12.90;99.10;;;;;;5047345;28;20116;-44
2020/12/23 11:21:59;;;;;;;3.45;3.15;;;12.80;99.10;;;;;;5046508;28;20052;-44
2020/12/23 11:24:24;;;;;;;4.07;3.78;;;12.80;99.10;;;;;;5046723;28;20029;-44
2020/12/23 11:26:50;;;;;;;4.75;3.50;;;12.70;99.10;;;;;;5046628;28;20039;-44
2020/12/23 11:29:15;;;;;;;3.88;3.45;;;12.70;99.20;;;;;;5046999;28;20459;-44
2020/12/23 11:31:41;;;;;;;5.75;3.80;;;12.70;99.20;;;;;;5046608;28;20033;-43
2020/12/23 11:34:06;;;;;;;6.63;3.60;;;12.70;99.30;;;;;;5046748;28;20041;-44
2020/12/23 11:36:32;;;;;;;3.83;3.47;;;12.70;99.20;;;;;;5046666;28;20129;-44
2020/12/23 11:38:59;;;;;;;2.80;2.60;;;12.70;99.30;;;;;;5046214;28;20395;-44
2020/12/23 11:41:25;;;;;;;3.70;3.28;;;12.70;99.20;;;;;;5046462;28;20094;-44
2020/12/23 11:43:50;;;;;;;3.60;3.30;;;12.70;99.20;;;;;;5046643;28;20025;-44
2020/12/23 11:46:16;;;;;;;3.67;3.10;;;12.70;99.30;;;;;;5046588;28;20063;-44
2020/12/23 11:48:41;;;;;;;4.63;3.72;;;12.70;99.30;;;;;;5046506;28;20047;-44
2020/12/23 11:51:07;;;;;;;3.80;3.40;;;12.70;99.20;;;;;;5046441;28;20028;-44
2020/12/23 11:53:34;;;;;;;3.50;3.20;;;12.70;99.20;;;;;;5046589;28;20159;-44
2020/12/23 11:55:59;;;;;;;3.50;3.20;;;12.70;99.20;;;;;;5046575;28;20021;-44
2020/12/23 11:58:25;;;;;;;4.35;3.95;;;12.70;99.20;;;;;;5046663;28;20082;-44
2020/12/23 12:00:51;;;;;;;3.75;3.45;;;12.70;99.20;;;;;;5045793;28;20029;-44
2020/12/23 12:03:16;;;;;;;3.90;3.58;;;12.70;99.20;;;;;;5045900;28;20728;-44
2020/12/23 12:05:42;;;;;;;3.90;3.60;;;12.70;99.20;;;;;;5045779;28;20055;-44
2020/12/23 12:08:08;;;;;;;5.32;4.80;;;12.70;99.30;;;;;;5046043;28;20052;-44
2020/12/23 12:10:34;;;;;;;3.40;3.10;;;12.70;99.20;;;;;;5046337;28;20017;-44
2020/12/23 12:13:00;;;;;;;5.65;4.15;;;12.70;99.20;;;;;;5045969;28;20107;-44
2020/12/23 12:15:26;;;;;;;5.13;4.68;;;12.60;99.30;;;;;;5045812;28;20045;-44
2020/12/23 12:17:51;;;;;;;5.65;5.10;;;12.70;99.30;;;;;;5046226;28;20611;-44
2020/12/23 12:20:19;;;;;;;5.18;4.60;;;12.60;99.30;;;;;;5045866;28;20025;-44
2020/12/23 12:22:45;;;;;;;5.90;4.78;;;12.60;99.40;;;;;;5046485;28;20025;-43
2020/12/23 12:25:15;;;;;;;4.47;4.07;;;12.70;99.40;;;;;;5045820;28;20071;-44
2020/12/23 12:27:40;;;;;;;4.00;3.70;;;12.70;99.40;;;;;;5045653;28;20032;-44
2020/12/23 12:30:06;;;;;;;3.88;3.58;;;12.70;99.40;;;;;;5046209;28;20021;-44
2020/12/23 12:32:31;;;;;;;3.50;3.20;;;12.70;99.40;;;;;;5046249;28;20120;-44
2020/12/23 12:34:57;;;;;;;3.65;3.35;;;12.70;99.40;;;;;;5045633;28;20720;-44
2020/12/23 12:37:23;;;;;;;3.97;3.58;;;12.70;99.70;;;;;;5045375;28;20476;-44